Saint Leonards, United Kingdom
Current Conditions -  °F | °C
As of 1:20 AM on Wednesday 28 Jan 2015 (Local Time) from EGHH Reporting Station
Broken Clouds Broken Clouds  
Wind Chill: 39°   Ceiling: 1500
Heat Index: 45°   Visibility: 6mi
Dew Point: 41°   Wind: 10mph
Humidity: 87%   Direction: 230°SW
Pressure: 30.06"   Gusts: NA
Location:  50.83°N, 1.85°W
Report Text: EGHH 280120Z 23009KT 9999 BKN015 07/05 Q1018
Loading
Personal Weather Stations






























Interactive Weather Map New forecast layout! Learn more

10-Day Weather Forecast

Advertisements
Track Severe Weather on mobile